createdAt,value
2017-07-14T00:00:16.661Z,26.3
2017-07-14T00:01:17.326Z,26.3
2017-07-14T00:02:17.355Z,26.37
2017-07-14T00:03:17.063Z,26.29
2017-07-14T00:04:17.416Z,26.3
2017-07-14T00:05:17.129Z,26.3
2017-07-14T00:06:17.458Z,26.32
2017-07-14T00:07:17.178Z,26.28
2017-07-14T00:08:17.536Z,26.35
2017-07-14T00:09:16.920Z,26.25
2017-07-14T00:10:16.948Z,26.3
2017-07-14T00:11:17.614Z,26.28
2017-07-14T00:12:17.632Z,26.3
2017-07-14T00:13:17.036Z,26.33
2017-07-14T00:14:17.394Z,26.26
2017-07-14T00:15:17.429Z,26.28
2017-07-14T00:16:17.762Z,26.29
2017-07-14T00:17:17.799Z,26.29
2017-07-14T00:18:17.503Z,26.29
2017-07-14T00:19:17.539Z,26.26
2017-07-14T00:20:17.557Z,26.18
2017-07-14T00:21:17.590Z,26.21
2017-07-14T00:22:17.611Z,26.2
2017-07-14T00:23:17.962Z,26.26
2017-07-14T00:24:17.984Z,26.29
2017-07-14T00:25:18.272Z,26.3
2017-07-14T00:26:18.050Z,26.28
2017-07-14T00:27:17.755Z,26.26
2017-07-14T00:28:17.792Z,26.26
2017-07-14T00:29:18.137Z,26.28
2017-07-14T00:30:18.149Z,26.18
2017-07-14T00:31:17.880Z,26.23
2017-07-14T00:32:18.228Z,26.26
2017-07-14T00:33:18.258Z,26.23
2017-07-14T00:34:18.291Z,26.28
2017-07-14T00:35:18.250Z,26.25
2017-07-14T00:36:18.345Z,26.23
2017-07-14T00:37:18.378Z,26.25
2017-07-14T00:38:18.415Z,26.25
2017-07-14T00:39:18.105Z,26.18
2017-07-14T00:40:18.433Z,26.23
2017-07-14T00:41:17.850Z,26.18
2017-07-14T00:42:18.523Z,26.25
2017-07-14T00:43:18.229Z,26.09
2017-07-14T00:44:18.260Z,26.13
2017-07-14T00:45:18.541Z,26.15
2017-07-14T00:46:18.654Z,26.21
2017-07-14T00:47:18.348Z,26.1
2017-07-14T00:48:18.696Z,26.2
2017-07-14T00:49:18.430Z,26.12
2017-07-14T00:50:18.726Z,26.07
2017-07-14T00:51:18.463Z,26.1
2017-07-14T00:52:18.491Z,26.1
2017-07-14T00:53:18.532Z,26.15
2017-07-14T00:54:18.869Z,26.09
2017-07-14T00:55:19.196Z,26.07
2017-07-14T00:56:18.930Z,26.1
2017-07-14T00:57:18.635Z,26.12
2017-07-14T00:58:18.663Z,26.15
2017-07-14T00:59:18.392Z,26.1
2017-07-14T01:00:19.017Z,26.09
2017-07-14T01:01:18.750Z,26.1
2017-07-14T01:02:18.781Z,26.18
2017-07-14T01:03:19.119Z,26.09
2017-07-14T01:04:19.156Z,26.09
2017-07-14T01:05:19.113Z,26.18
2017-07-14T01:06:18.891Z,26.06
2017-07-14T01:07:19.246Z,26.07
2017-07-14T01:08:18.634Z,26.07
2017-07-14T01:09:18.981Z,26.13
2017-07-14T01:10:19.321Z,26.09
2017-07-14T01:11:19.039Z,26.07
2017-07-14T01:12:19.072Z,26.1
2017-07-14T01:13:19.424Z,26.09
2017-07-14T01:14:19.448Z,26.15
2017-07-14T01:15:19.726Z,26.15
2017-07-14T01:16:19.195Z,26.1
2017-07-14T01:17:19.540Z,26.06
2017-07-14T01:18:19.284Z,26.09
2017-07-14T01:19:19.593Z,26.12
2017-07-14T01:20:19.913Z,26.09
2017-07-14T01:21:19.334Z,26.09
2017-07-14T01:22:19.675Z,26.07
2017-07-14T01:23:19.388Z,26.1
2017-07-14T01:24:19.423Z,26.13
2017-07-14T01:25:19.697Z,26.1
2017-07-14T01:26:19.482Z,26.12
2017-07-14T01:27:19.503Z,26.13
2017-07-14T01:28:19.853Z,26.09
2017-07-14T01:29:19.566Z,26.02
2017-07-14T01:30:19.893Z,26.07
2017-07-14T01:31:19.947Z,26.12
2017-07-14T01:32:19.980Z,26.1
2017-07-14T01:33:19.356Z,26.07
2017-07-14T01:34:19.385Z,26.09
2017-07-14T01:35:20.365Z,26.1
2017-07-14T01:36:19.759Z,26.12
2017-07-14T01:37:20.121Z,26.12
2017-07-14T01:38:20.136Z,26.09
2017-07-14T01:39:19.849Z,26.17
2017-07-14T01:40:20.211Z,26.01
2017-07-14T01:41:20.224Z,26.05
2017-07-14T01:42:19.928Z,26.09
2017-07-14T01:43:20.292Z,26.02
2017-07-14T01:44:19.994Z,26.07
2017-07-14T01:45:20.022Z,26.01
2017-07-14T01:46:20.362Z,26.01
2017-07-14T01:47:19.759Z,26.05
2017-07-14T01:48:20.108Z,26.02
2017-07-14T01:49:20.457Z,26.02
2017-07-14T01:50:20.161Z,26.1
2017-07-14T01:51:20.186Z,26.06
2017-07-14T01:52:20.547Z,26.01
2017-07-14T01:53:20.580Z,26.06
2017-07-14T01:54:19.964Z,26.06
2017-07-14T01:55:20.317Z,25.95
2017-07-14T01:56:20.956Z,26.02
2017-07-14T01:57:20.366Z,26.1
2017-07-14T01:58:20.395Z,26.07
2017-07-14T01:59:20.748Z,26.12
2017-07-14T02:00:20.773Z,25.99
2017-07-14T02:01:21.107Z,26.05
2017-07-14T02:02:20.839Z,26.01
2017-07-14T02:03:20.227Z,26.07
2017-07-14T02:04:20.252Z,25.95
2017-07-14T02:05:20.597Z,25.99
2017-07-14T02:06:20.927Z,25.97
2017-07-14T02:07:20.975Z,25.94
2017-07-14T02:08:20.692Z,25.92
2017-07-14T02:09:21.037Z,25.98
2017-07-14T02:10:21.077Z,26.02
2017-07-14T02:11:21.078Z,25.94
2017-07-14T02:12:21.124Z,26.01
2017-07-14T02:13:21.148Z,25.98
2017-07-14T02:14:20.857Z,25.92
2017-07-14T02:15:20.881Z,25.95
2017-07-14T02:16:21.538Z,25.94
2017-07-14T02:17:21.271Z,25.88
2017-07-14T02:18:21.292Z,25.98
2017-07-14T02:19:21.000Z,25.91
2017-07-14T02:20:20.713Z,25.92
2017-07-14T02:21:21.630Z,25.91
2017-07-14T02:22:21.095Z,25.91
2017-07-14T02:23:21.436Z,25.94
2017-07-14T02:24:20.820Z,25.97
2017-07-14T02:25:21.177Z,25.97
2017-07-14T02:26:21.187Z,25.9
2017-07-14T02:27:21.559Z,25.92
2017-07-14T02:28:21.591Z,25.95
2017-07-14T02:29:21.292Z,25.92
2017-07-14T02:30:21.321Z,25.95
2017-07-14T02:31:21.602Z,25.87
2017-07-14T02:32:21.376Z,25.9
2017-07-14T02:33:21.406Z,25.9
2017-07-14T02:34:21.765Z,25.85
2017-07-14T02:35:21.461Z,25.88
2017-07-14T02:36:22.110Z,25.85
2017-07-14T02:37:21.835Z,25.88
2017-07-14T02:38:21.225Z,25.9
2017-07-14T02:39:21.902Z,25.85
2017-07-14T02:40:21.601Z,25.88
2017-07-14T02:41:22.255Z,25.88
2017-07-14T02:42:21.668Z,25.94
2017-07-14T02:43:21.692Z,25.9
2017-07-14T02:44:22.052Z,25.88
2017-07-14T02:45:22.074Z,25.9
2017-07-14T02:46:22.031Z,25.85
2017-07-14T02:47:22.135Z,25.87
2017-07-14T02:48:21.514Z,25.88
2017-07-14T02:49:22.187Z,25.8
2017-07-14T02:50:22.218Z,25.8
2017-07-14T02:51:22.494Z,25.77
2017-07-14T02:52:21.947Z,25.75
2017-07-14T02:53:22.301Z,25.8
2017-07-14T02:54:22.329Z,25.77
2017-07-14T02:55:22.038Z,25.8
2017-07-14T02:56:22.686Z,25.8
2017-07-14T02:57:22.096Z,25.77
2017-07-14T02:58:22.445Z,25.82
2017-07-14T02:59:22.473Z,25.77
2017-07-14T03:00:22.510Z,25.75
2017-07-14T03:01:22.830Z,25.77
2017-07-14T03:02:22.230Z,25.79
2017-07-14T03:03:22.592Z,25.8
2017-07-14T03:04:21.977Z,25.8
2017-07-14T03:05:22.650Z,25.85
2017-07-14T03:06:22.335Z,25.77
2017-07-14T03:07:22.699Z,25.77
2017-07-14T03:08:22.735Z,25.76
2017-07-14T03:09:22.441Z,25.82
2017-07-14T03:10:22.789Z,25.76
2017-07-14T03:11:23.110Z,25.76
2017-07-14T03:12:22.515Z,25.77
2017-07-14T03:13:22.872Z,25.75
2017-07-14T03:14:22.585Z,25.8
2017-07-14T03:15:22.610Z,25.73
2017-07-14T03:16:22.883Z,25.73
2017-07-14T03:17:22.663Z,25.73
2017-07-14T03:18:23.026Z,25.75
2017-07-14T03:19:22.730Z,25.72
2017-07-14T03:20:22.749Z,25.7
2017-07-14T03:21:22.731Z,25.75
2017-07-14T03:22:22.807Z,25.67
2017-07-14T03:23:23.144Z,25.67
2017-07-14T03:24:23.200Z,25.65
2017-07-14T03:25:23.210Z,25.64
2017-07-14T03:26:23.482Z,25.64
2017-07-14T03:27:23.272Z,25.69
2017-07-14T03:28:22.979Z,25.67
2017-07-14T03:29:23.333Z,25.64
2017-07-14T03:30:23.350Z,25.62
2017-07-14T03:31:23.070Z,25.69
2017-07-14T03:32:23.095Z,25.64
2017-07-14T03:33:23.116Z,25.64
2017-07-14T03:34:23.480Z,25.54
2017-07-14T03:35:23.502Z,25.6
2017-07-14T03:36:23.215Z,25.58
2017-07-14T03:37:23.234Z,25.6
2017-07-14T03:38:23.584Z,25.58
2017-07-14T03:39:23.613Z,25.58
2017-07-14T03:40:23.643Z,25.61
2017-07-14T03:41:23.678Z,25.57
2017-07-14T03:42:23.707Z,25.58
2017-07-14T03:43:23.416Z,25.6
2017-07-14T03:44:23.760Z,25.58
2017-07-14T03:45:23.469Z,25.57
2017-07-14T03:46:23.179Z,25.57
2017-07-14T03:47:23.207Z,25.58
2017-07-14T03:48:23.556Z,25.58
2017-07-14T03:49:23.584Z,25.6
2017-07-14T03:50:23.922Z,25.57
2017-07-14T03:51:23.955Z,25.58
2017-07-14T03:52:23.988Z,25.61
2017-07-14T03:53:23.700Z,25.57
2017-07-14T03:54:23.408Z,25.55
2017-07-14T03:55:23.754Z,25.57
2017-07-14T03:56:23.774Z,25.57
2017-07-14T03:57:24.131Z,25.54
2017-07-14T03:58:23.836Z,25.55
2017-07-14T03:59:23.867Z,25.58
2017-07-14T04:00:24.217Z,25.58
2017-07-14T04:01:23.923Z,25.61
2017-07-14T04:02:23.956Z,25.57
2017-07-14T04:03:24.300Z,25.6
2017-07-14T04:04:24.329Z,25.57
2017-07-14T04:05:24.045Z,25.58
2017-07-14T04:06:24.382Z,25.55
2017-07-14T04:07:23.774Z,25.57
2017-07-14T04:08:24.116Z,25.55
2017-07-14T04:09:24.469Z,25.54
2017-07-14T04:10:24.506Z,25.58
2017-07-14T04:11:24.209Z,25.58
2017-07-14T04:12:23.915Z,25.58
2017-07-14T04:13:24.269Z,25.57
2017-07-14T04:14:23.976Z,25.58
2017-07-14T04:15:24.326Z,25.55
2017-07-14T04:16:24.351Z,25.52
2017-07-14T04:17:24.699Z,25.55
2017-07-14T04:18:24.728Z,25.58
2017-07-14T04:19:24.753Z,25.57
2017-07-14T04:20:24.144Z,25.57
2017-07-14T04:21:24.174Z,25.5
2017-07-14T04:22:24.839Z,25.58
2017-07-14T04:23:24.551Z,25.54
2017-07-14T04:24:24.897Z,25.57
2017-07-14T04:25:24.934Z,25.5
2017-07-14T04:26:24.631Z,25.57
2017-07-14T04:27:24.984Z,25.58
2017-07-14T04:28:24.692Z,25.47
2017-07-14T04:29:25.041Z,25.57
2017-07-14T04:30:24.751Z,25.54
2017-07-14T04:31:24.771Z,25.54
2017-07-14T04:32:25.127Z,25.55
2017-07-14T04:33:25.157Z,25.57
2017-07-14T04:34:25.181Z,25.57
2017-07-14T04:35:24.893Z,25.57
2017-07-14T04:36:24.923Z,25.57
2017-07-14T04:37:24.883Z,25.57
2017-07-14T04:38:25.297Z,25.58
2017-07-14T04:39:25.027Z,25.57
2017-07-14T04:40:25.358Z,25.61
2017-07-14T04:41:25.062Z,25.55
2017-07-14T04:42:25.712Z,25.6
2017-07-14T04:43:25.116Z,25.52
2017-07-14T04:44:25.468Z,25.58
2017-07-14T04:45:25.170Z,25.55
2017-07-14T04:46:25.527Z,25.58
2017-07-14T04:47:25.487Z,25.62
2017-07-14T04:48:25.265Z,25.58
2017-07-14T04:49:25.291Z,25.58
2017-07-14T04:50:25.322Z,25.58
2017-07-14T04:51:25.346Z,25.55
2017-07-14T04:52:25.627Z,25.57
2017-07-14T04:53:25.400Z,25.57
2017-07-14T04:54:25.113Z,25.52
2017-07-14T04:55:25.789Z,25.6
2017-07-14T04:56:25.803Z,25.61
2017-07-14T04:57:26.091Z,25.55
2017-07-14T04:58:25.550Z,25.64
2017-07-14T04:59:25.897Z,25.57
2017-07-14T05:00:25.602Z,25.61
2017-07-14T05:01:25.630Z,25.61
2017-07-14T05:02:25.592Z,25.61
2017-07-14T05:03:26.017Z,25.61
2017-07-14T05:04:25.717Z,25.61
2017-07-14T05:05:25.747Z,25.62
2017-07-14T05:06:25.777Z,25.58
2017-07-14T05:07:25.740Z,25.67
2017-07-14T05:08:25.829Z,25.64
2017-07-14T05:09:25.861Z,25.54
2017-07-14T05:10:26.207Z,25.64
2017-07-14T05:11:25.916Z,25.58
2017-07-14T05:12:26.241Z,25.51
2017-07-14T05:13:25.995Z,25.6
2017-07-14T05:14:26.006Z,25.6
2017-07-14T05:15:26.351Z,25.6
2017-07-14T05:16:25.735Z,25.64
2017-07-14T05:17:26.019Z,25.58
2017-07-14T05:18:26.432Z,25.6
2017-07-14T05:19:26.137Z,25.62
2017-07-14T05:20:26.521Z,25.62
2017-07-14T05:21:26.204Z,25.58
2017-07-14T05:22:26.518Z,25.55
2017-07-14T05:23:26.248Z,25.55
2017-07-14T05:24:25.961Z,25.61
2017-07-14T05:25:26.318Z,25.54
2017-07-14T05:26:26.650Z,25.64
2017-07-14T05:27:26.345Z,25.6
2017-07-14T05:28:26.721Z,25.64
2017-07-14T05:29:26.754Z,25.54
2017-07-14T05:30:26.775Z,25.61
2017-07-14T05:31:26.811Z,25.58
2017-07-14T05:32:26.824Z,25.61
2017-07-14T05:33:26.905Z,25.64
2017-07-14T05:34:26.250Z,25.61
2017-07-14T05:35:26.602Z,25.54
2017-07-14T05:36:26.632Z,25.64
2017-07-14T05:37:26.908Z,25.55
2017-07-14T05:38:26.677Z,25.61
2017-07-14T05:39:26.715Z,25.62
2017-07-14T05:40:27.062Z,25.62
2017-07-14T05:41:27.085Z,25.58
2017-07-14T05:42:27.412Z,25.69
2017-07-14T05:43:27.150Z,25.67
2017-07-14T05:44:27.194Z,25.64
2017-07-14T05:45:27.202Z,25.64
2017-07-14T05:46:27.236Z,25.67
2017-07-14T05:47:26.940Z,25.64
2017-07-14T05:48:27.286Z,25.69
2017-07-14T05:49:27.309Z,25.62
2017-07-14T05:50:27.343Z,25.61
2017-07-14T05:51:27.053Z,25.72
2017-07-14T05:52:27.084Z,25.69
2017-07-14T05:53:27.437Z,25.65
2017-07-14T05:54:27.138Z,25.69
2017-07-14T05:55:27.480Z,25.7
2017-07-14T05:56:26.880Z,25.73
2017-07-14T05:57:27.544Z,25.7
2017-07-14T05:58:27.581Z,25.64
2017-07-14T05:59:27.614Z,25.69
2017-07-14T06:00:27.303Z,25.64
2017-07-14T06:01:27.659Z,25.73
2017-07-14T06:02:27.691Z,25.65
2017-07-14T06:03:27.705Z,25.67
2017-07-14T06:04:27.737Z,25.64
2017-07-14T06:05:27.130Z,25.61
2017-07-14T06:06:27.799Z,25.65
2017-07-14T06:07:27.512Z,25.67
2017-07-14T06:08:27.859Z,25.67
2017-07-14T06:09:27.889Z,25.7
2017-07-14T06:10:27.919Z,25.69
2017-07-14T06:11:27.627Z,25.67
2017-07-14T06:12:27.655Z,25.7
2017-07-14T06:13:27.937Z,25.69
2017-07-14T06:14:28.026Z,25.7
2017-07-14T06:15:27.734Z,25.67
2017-07-14T06:16:28.088Z,25.73
2017-07-14T06:17:27.796Z,25.73
2017-07-14T06:18:28.401Z,25.76
2017-07-14T06:19:27.530Z,25.76
2017-07-14T06:20:28.203Z,25.7
2017-07-14T06:21:27.926Z,25.76
2017-07-14T06:22:28.244Z,25.76
2017-07-14T06:23:28.260Z,25.82
2017-07-14T06:24:28.308Z,25.8
2017-07-14T06:25:28.335Z,25.75
2017-07-14T06:26:28.383Z,25.77
2017-07-14T06:27:28.080Z,25.79
2017-07-14T06:28:28.415Z,25.8
2017-07-14T06:29:28.134Z,25.79
2017-07-14T06:30:28.179Z,25.8
2017-07-14T06:31:28.512Z,25.87
2017-07-14T06:32:28.544Z,25.92
2017-07-14T06:33:28.505Z,25.92
2017-07-14T06:34:28.285Z,25.87
2017-07-14T06:35:28.310Z,25.9
2017-07-14T06:36:28.340Z,25.87
2017-07-14T06:37:28.692Z,25.87
2017-07-14T06:38:28.968Z,25.91
2017-07-14T06:39:28.417Z,25.91
2017-07-14T06:40:28.455Z,25.9
2017-07-14T06:41:28.164Z,25.9
2017-07-14T06:42:28.509Z,25.87
2017-07-14T06:43:28.798Z,25.83
2017-07-14T06:44:28.251Z,25.88
2017-07-14T06:45:28.919Z,25.85
2017-07-14T06:46:28.620Z,25.87
2017-07-14T06:47:28.653Z,25.91
2017-07-14T06:48:28.977Z,25.92
2017-07-14T06:49:28.711Z,25.76
2017-07-14T06:50:29.066Z,25.91
2017-07-14T06:51:28.760Z,25.91
2017-07-14T06:52:28.795Z,25.91
2017-07-14T06:53:29.123Z,25.88
2017-07-14T06:54:29.174Z,25.92
2017-07-14T06:55:29.205Z,25.97
2017-07-14T06:56:29.232Z,25.85
2017-07-14T06:57:28.939Z,25.92
2017-07-14T06:58:29.265Z,25.92
2017-07-14T06:59:28.682Z,25.95
2017-07-14T07:00:29.037Z,25.9
2017-07-14T07:01:29.058Z,25.94
2017-07-14T07:02:29.109Z,25.95
2017-07-14T07:03:29.110Z,25.94
2017-07-14T07:04:29.463Z,25.91
2017-07-14T07:05:29.490Z,25.88
2017-07-14T07:06:29.204Z,25.91
2017-07-14T07:07:29.537Z,25.88
2017-07-14T07:08:29.579Z,25.88
2017-07-14T07:09:29.607Z,25.87
2017-07-14T07:10:29.631Z,25.95
2017-07-14T07:11:29.668Z,25.98
2017-07-14T07:12:29.367Z,25.91
2017-07-14T07:13:29.400Z,25.91
2017-07-14T07:14:29.426Z,25.88
2017-07-14T07:15:29.781Z,25.91
2017-07-14T07:16:29.800Z,25.94
2017-07-14T07:17:29.822Z,25.88
2017-07-14T07:18:29.866Z,25.9
2017-07-14T07:19:29.887Z,25.88
2017-07-14T07:20:29.918Z,25.92
2017-07-14T07:21:29.944Z,26.01
2017-07-14T07:22:29.967Z,25.9
2017-07-14T07:23:29.365Z,25.97
2017-07-14T07:24:30.015Z,25.98
2017-07-14T07:25:30.055Z,25.95
2017-07-14T07:26:29.455Z,25.92
2017-07-14T07:27:29.805Z,25.92
2017-07-14T07:28:29.830Z,25.94
2017-07-14T07:29:30.430Z,25.91
2017-07-14T07:30:29.571Z,26.09
2017-07-14T07:31:30.251Z,25.94
2017-07-14T07:32:29.940Z,26.12
2017-07-14T07:33:29.973Z,26.07
2017-07-14T07:34:30.564Z,25.98
2017-07-14T07:35:30.026Z,26.05
2017-07-14T07:36:30.056Z,26.06
2017-07-14T07:37:30.417Z,25.99
2017-07-14T07:38:30.118Z,26.12
2017-07-14T07:39:30.443Z,26.07
2017-07-14T07:40:30.484Z,26.06
2017-07-14T07:41:30.524Z,26.12
2017-07-14T07:42:30.549Z,26.13
2017-07-14T07:43:30.250Z,26.15
2017-07-14T07:44:30.219Z,26.05
2017-07-14T07:45:30.624Z,26.06
2017-07-14T07:46:30.665Z,26.15
2017-07-14T07:47:30.373Z,26.09
2017-07-14T07:48:30.398Z,26.1
2017-07-14T07:49:31.001Z,26.13
2017-07-14T07:50:30.779Z,26.25
2017-07-14T07:51:30.169Z,26.21
2017-07-14T07:52:30.522Z,26.25
2017-07-14T07:53:30.873Z,26.2
2017-07-14T07:54:30.865Z,26.32
2017-07-14T07:55:30.924Z,26.3
2017-07-14T07:56:30.953Z,26.29
2017-07-14T07:57:30.662Z,26.29
2017-07-14T07:58:31.005Z,26.26
2017-07-14T07:59:31.290Z,26.26
2017-07-14T08:00:31.076Z,26.26
2017-07-14T08:01:31.097Z,26.32
2017-07-14T08:02:30.806Z,26.3
2017-07-14T08:03:30.838Z,26.32
2017-07-14T08:04:30.859Z,26.3
2017-07-14T08:05:30.573Z,26.36
2017-07-14T08:06:31.236Z,26.3
2017-07-14T08:07:31.285Z,26.3
2017-07-14T08:08:30.979Z,26.33
2017-07-14T08:09:31.319Z,26.29
2017-07-14T08:10:31.041Z,26.33
2017-07-14T08:11:31.067Z,26.39
2017-07-14T08:12:31.414Z,26.28
2017-07-14T08:13:31.114Z,26.36
2017-07-14T08:14:31.143Z,26.39
2017-07-14T08:15:31.183Z,26.35
2017-07-14T08:16:31.216Z,26.43
2017-07-14T08:17:31.221Z,26.4
2017-07-14T08:18:31.582Z,26.4
2017-07-14T08:19:31.618Z,26.39
2017-07-14T08:20:31.644Z,26.33
2017-07-14T08:21:31.674Z,26.36
2017-07-14T08:22:31.381Z,26.36
2017-07-14T08:23:31.406Z,26.4
2017-07-14T08:24:31.437Z,26.4
2017-07-14T08:25:31.468Z,26.39
2017-07-14T08:26:31.816Z,26.37
2017-07-14T08:27:31.525Z,26.4
2017-07-14T08:28:31.867Z,26.4
2017-07-14T08:29:31.911Z,26.4
2017-07-14T08:30:31.615Z,26.48
2017-07-14T08:31:31.966Z,26.52
2017-07-14T08:32:31.990Z,26.52
2017-07-14T08:33:31.700Z,26.44
2017-07-14T08:34:31.756Z,26.54
2017-07-14T08:35:32.081Z,26.44
2017-07-14T08:36:32.105Z,26.51
2017-07-14T08:37:32.138Z,26.51
2017-07-14T08:38:31.843Z,26.6
2017-07-14T08:39:32.198Z,26.62
2017-07-14T08:40:31.907Z,26.65
2017-07-14T08:41:31.937Z,26.51
2017-07-14T08:42:31.960Z,26.6
2017-07-14T08:43:31.993Z,26.66
2017-07-14T08:44:32.020Z,26.66
2017-07-14T08:45:32.295Z,26.69
2017-07-14T08:46:32.405Z,26.7
2017-07-14T08:47:32.425Z,26.62
2017-07-14T08:48:32.134Z,26.76
2017-07-14T08:49:32.488Z,26.67
2017-07-14T08:50:32.488Z,26.8
2017-07-14T08:51:32.219Z,26.76
2017-07-14T08:52:32.569Z,26.77
2017-07-14T08:53:32.607Z,26.81
2017-07-14T08:54:32.307Z,26.75
2017-07-14T08:55:32.320Z,26.76
2017-07-14T08:56:32.677Z,26.73
2017-07-14T08:57:32.722Z,26.8
2017-07-14T08:58:32.427Z,26.73
2017-07-14T08:59:32.783Z,26.72
2017-07-14T09:00:32.738Z,26.76
2017-07-14T09:01:32.198Z,26.72
2017-07-14T09:02:32.546Z,26.69
2017-07-14T09:03:32.883Z,26.75
2017-07-14T09:04:32.924Z,26.77
2017-07-14T09:05:33.247Z,26.77
2017-07-14T09:06:32.982Z,26.7
2017-07-14T09:07:33.010Z,26.7
2017-07-14T09:08:33.042Z,26.76
2017-07-14T09:09:32.753Z,26.7
2017-07-14T09:10:33.076Z,26.7
2017-07-14T09:11:32.806Z,26.62
2017-07-14T09:12:33.182Z,26.63
2017-07-14T09:13:33.176Z,26.66
2017-07-14T09:14:32.888Z,26.67
2017-07-14T09:15:33.176Z,26.76
2017-07-14T09:16:33.269Z,26.69
2017-07-14T09:17:33.307Z,26.66
2017-07-14T09:18:33.327Z,26.7
2017-07-14T09:19:33.355Z,26.69
2017-07-14T09:20:33.355Z,26.66
2017-07-14T09:21:33.418Z,26.66
2017-07-14T09:22:33.442Z,26.66
2017-07-14T09:23:33.478Z,26.69
2017-07-14T09:24:33.185Z,26.62
2017-07-14T09:25:33.776Z,26.62
2017-07-14T09:26:33.245Z,26.62
2017-07-14T09:27:33.594Z,26.69
2017-07-14T09:28:33.315Z,26.65
2017-07-14T09:29:33.327Z,26.66
2017-07-14T09:30:33.612Z,26.51
2017-07-14T09:31:33.706Z,26.52
2017-07-14T09:32:33.415Z,26.51
2017-07-14T09:33:33.767Z,26.52
2017-07-14T09:34:33.467Z,26.55
2017-07-14T09:35:33.759Z,26.57
2017-07-14T09:36:33.534Z,26.54
2017-07-14T09:37:33.876Z,26.66
2017-07-14T09:38:33.902Z,26.54
2017-07-14T09:39:33.935Z,26.52
2017-07-14T09:40:33.951Z,26.66
2017-07-14T09:41:33.669Z,26.66
2017-07-14T09:42:34.030Z,26.69
2017-07-14T09:43:34.062Z,26.72
2017-07-14T09:44:34.091Z,26.66
2017-07-14T09:45:34.372Z,26.7
2017-07-14T09:46:34.146Z,26.69
2017-07-14T09:47:33.853Z,26.66
2017-07-14T09:48:34.212Z,26.73
2017-07-14T09:49:33.919Z,26.66
2017-07-14T09:50:33.945Z,26.7
2017-07-14T09:51:34.002Z,26.73
2017-07-14T09:52:33.999Z,26.77
2017-07-14T09:53:34.354Z,26.82
2017-07-14T09:54:34.383Z,26.8
2017-07-14T09:55:34.409Z,26.81
2017-07-14T09:56:34.445Z,26.81
2017-07-14T09:57:34.469Z,26.85
2017-07-14T09:58:34.506Z,26.82
2017-07-14T09:59:34.524Z,26.82
2017-07-14T10:00:34.559Z,26.81
2017-07-14T10:01:33.970Z,26.91
2017-07-14T10:02:34.605Z,26.85
2017-07-14T10:03:34.647Z,26.91
2017-07-14T10:04:34.031Z,26.94
2017-07-14T10:05:34.705Z,26.94
2017-07-14T10:06:34.410Z,26.88
2017-07-14T10:07:34.757Z,27
2017-07-14T10:08:34.787Z,26.92
2017-07-14T10:09:34.814Z,26.92
2017-07-14T10:10:34.856Z,27
2017-07-14T10:11:34.552Z,26.92
2017-07-14T10:12:34.905Z,26.91
2017-07-14T10:13:34.615Z,26.94
2017-07-14T10:14:34.636Z,26.97
2017-07-14T10:15:34.667Z,26.94
2017-07-14T10:16:34.705Z,26.95
2017-07-14T10:17:35.066Z,26.99
2017-07-14T10:18:34.771Z,27.07
2017-07-14T10:19:34.793Z,27.03
2017-07-14T10:20:34.830Z,27.04
2017-07-14T10:21:34.885Z,27.07
2017-07-14T10:22:34.874Z,27.06
2017-07-14T10:23:35.235Z,27.02
2017-07-14T10:24:35.260Z,27.07
2017-07-14T10:25:35.297Z,27.03
2017-07-14T10:26:35.003Z,27
2017-07-14T10:27:35.355Z,27.06
2017-07-14T10:28:35.379Z,27.07
2017-07-14T10:29:35.084Z,27.1
2017-07-14T10:30:35.432Z,27.1
2017-07-14T10:31:35.470Z,27.07
2017-07-14T10:32:35.170Z,27.09
2017-07-14T10:33:35.527Z,27.12
2017-07-14T10:34:35.573Z,27.04
2017-07-14T10:35:34.945Z,27.06
2017-07-14T10:36:35.858Z,27.06
2017-07-14T10:37:35.645Z,27.06
2017-07-14T10:38:35.359Z,27.04
2017-07-14T10:39:35.705Z,27.09
2017-07-14T10:40:35.724Z,26.99
2017-07-14T10:41:36.061Z,27.04
2017-07-14T10:42:35.790Z,27.03
2017-07-14T10:43:35.827Z,27.04
2017-07-14T10:44:35.536Z,26.94
2017-07-14T10:45:35.556Z,26.94
2017-07-14T10:46:35.894Z,26.94
2017-07-14T10:47:35.939Z,26.95
2017-07-14T10:48:35.639Z,26.94
2017-07-14T10:49:35.671Z,26.88
2017-07-14T10:50:36.023Z,26.91
2017-07-14T10:51:35.682Z,26.92
2017-07-14T10:52:36.074Z,26.87
2017-07-14T10:53:35.795Z,26.8
2017-07-14T10:54:36.171Z,26.8
2017-07-14T10:55:36.173Z,26.85
2017-07-14T10:56:36.500Z,26.8
2017-07-14T10:57:35.595Z,26.87
2017-07-14T10:58:35.624Z,26.91
2017-07-14T10:59:36.293Z,26.92
2017-07-14T11:00:36.321Z,26.97
2017-07-14T11:01:36.273Z,26.94
2017-07-14T11:02:36.054Z,26.97
2017-07-14T11:03:36.087Z,26.97
2017-07-14T11:04:36.115Z,26.94
2017-07-14T11:05:36.469Z,27.07
2017-07-14T11:06:36.751Z,27.02
2017-07-14T11:07:36.207Z,27.07
2017-07-14T11:08:36.267Z,26.99
2017-07-14T11:09:36.580Z,27.1
2017-07-14T11:10:36.613Z,27.04
2017-07-14T11:11:36.939Z,27.12
2017-07-14T11:12:36.672Z,27.13
2017-07-14T11:13:36.383Z,27.12
2017-07-14T11:14:36.416Z,27.17
2017-07-14T11:15:36.809Z,27.18
2017-07-14T11:16:36.767Z,27.12
2017-07-14T11:17:36.823Z,27.09
2017-07-14T11:18:36.532Z,27.18
2017-07-14T11:19:36.883Z,27.09
2017-07-14T11:20:36.589Z,27.04
2017-07-14T11:21:37.233Z,27.09
2017-07-14T11:22:36.962Z,27.04
2017-07-14T11:23:36.991Z,27.04
2017-07-14T11:24:36.706Z,27.13
2017-07-14T11:25:37.057Z,27.14
2017-07-14T11:26:37.016Z,27.17
2017-07-14T11:27:37.119Z,27.09
2017-07-14T11:28:36.824Z,27.1
2017-07-14T11:29:36.856Z,27.19
2017-07-14T11:30:36.878Z,27.1
2017-07-14T11:31:37.167Z,27.12
2017-07-14T11:32:36.952Z,27.21
2017-07-14T11:33:37.281Z,27.14
2017-07-14T11:34:37.301Z,27.17
2017-07-14T11:35:37.342Z,27.21
2017-07-14T11:36:37.609Z,27.27
2017-07-14T11:37:37.075Z,27.21
2017-07-14T11:38:36.802Z,27.31
2017-07-14T11:39:37.120Z,27.28
2017-07-14T11:40:37.485Z,27.22
2017-07-14T11:41:37.182Z,27.29
2017-07-14T11:42:37.540Z,27.37
2017-07-14T11:43:37.242Z,27.44
2017-07-14T11:44:37.288Z,27.54
2017-07-14T11:45:37.637Z,27.66
2017-07-14T11:46:37.657Z,27.81
2017-07-14T11:47:37.727Z,27.9
2017-07-14T11:48:37.403Z,27.94
2017-07-14T11:49:37.748Z,28.14
2017-07-14T11:50:37.796Z,28.31
2017-07-14T11:51:37.191Z,28.36
2017-07-14T11:52:37.860Z,28.41
2017-07-14T11:53:37.885Z,28.55
2017-07-14T11:54:37.279Z,28.7
2017-07-14T11:55:37.630Z,28.88
2017-07-14T11:56:37.348Z,28.98
2017-07-14T11:57:38.013Z,29.05
2017-07-14T11:58:37.759Z,29.18
2017-07-14T11:59:38.073Z,29.39
2017-07-14T12:00:37.470Z,29.41
2017-07-14T12:01:38.141Z,29.73
2017-07-14T12:02:37.535Z,29.74
2017-07-14T12:03:38.176Z,29.9
2017-07-14T12:04:38.221Z,29.95
2017-07-14T12:05:37.942Z,30.1
2017-07-14T12:06:38.450Z,30.34
2017-07-14T12:07:38.587Z,30.43
2017-07-14T12:08:38.056Z,30.47
2017-07-14T12:09:38.070Z,30.65
2017-07-14T12:10:38.445Z,30.72
2017-07-14T12:11:38.466Z,30.82
2017-07-14T12:12:38.735Z,30.95
2017-07-14T12:13:38.197Z,31.02
2017-07-14T12:14:38.228Z,31.14
2017-07-14T12:15:38.258Z,31.29
2017-07-14T12:16:38.295Z,31.21
2017-07-14T12:17:38.952Z,31.31
2017-07-14T12:18:38.047Z,31.5
2017-07-14T12:19:38.400Z,31.54
2017-07-14T12:20:38.749Z,31.61
2017-07-14T12:21:38.463Z,31.75
2017-07-14T12:22:38.743Z,31.81
2017-07-14T12:23:38.216Z,31.75
2017-07-14T12:24:38.881Z,31.88
2017-07-14T12:25:38.586Z,31.99
2017-07-14T12:26:38.984Z,32
2017-07-14T12:27:39.240Z,32.03
2017-07-14T12:28:38.696Z,32.15
2017-07-14T12:29:39.059Z,32.06
2017-07-14T12:30:38.764Z,32.13
2017-07-14T12:31:39.123Z,32.22
2017-07-14T12:32:38.771Z,32.11
2017-07-14T12:33:39.186Z,32.19
2017-07-14T12:34:38.894Z,32.18
2017-07-14T12:35:38.938Z,32.19
2017-07-14T12:36:38.966Z,32.3
2017-07-14T12:37:39.607Z,32.37
2017-07-14T12:38:39.028Z,32.3
2017-07-14T12:39:39.377Z,32.4
2017-07-14T12:40:38.779Z,32.29
2017-07-14T12:41:39.121Z,32.33
2017-07-14T12:42:39.093Z,32.22
2017-07-14T12:43:39.517Z,32.22
2017-07-14T12:44:39.222Z,32.23
2017-07-14T12:45:39.290Z,32.21
2017-07-14T12:46:39.326Z,32.13
2017-07-14T12:47:39.571Z,32.15
2017-07-14T12:48:39.665Z,32.25
2017-07-14T12:49:39.385Z,32.21
2017-07-14T12:50:39.743Z,32.35
2017-07-14T12:51:39.772Z,32.33
2017-07-14T12:52:39.794Z,32.45
2017-07-14T12:53:39.842Z,32.47
2017-07-14T12:54:39.253Z,32.57
2017-07-14T12:55:39.275Z,32.56
2017-07-14T12:56:39.635Z,32.57